Dedham, IA

01:06 AM CST del 23 novembre 2014 (GMT -0600)
Neu | Change Station
CLOSE
Current Station
Aeroporto
Location: Carroll,
Altitudine: 1204 ft
Stazioni meteo nelle vicinanze

Alt. 1204 ft 42.04 °N, 94.79 °W | Updated 11 minutes ago

Coperto
Coperto
52 °F
Sembra 52 °F
N
16
Vento Variabile Vento da SSO
Gusts 24 mph

Oggi
Massima -- | Minima -- °F
--% Possibilità di precip.
Ieri
Massima -- | Minima -- °F
Precip. -- in
7:18 AM 4:52 PM
Luna nuova, 1% visible
Pressione 29.53 in
Visibilità 10.0 miglia
Nuvole Coperto 700 ft
Punto di rugiada 52 °F
Umidità 100%
Piovosità 0.00 in
Spessore del manto nevoso Non disponibile.
Raggi UV 0 fuori da 12
Polline .10 fuori da 12
Qualità dell'aria Non disponibile.
Flu Activity Non disponibile.
METAR KCIN 230655Z AUTO 20014G21KT 10SM OVC007 11/11 A2953 RMK AO2

More Conditions Fewer Conditions

Pressione 29.53 in
Visibilità 10.0 miglia
Nuvole Coperto 700 ft
Punto di rugiada 52 °F
Umidità 100%
Piovosità 0.00 in
Spessore del manto nevoso Non disponibile.
Raggi UV 0 fuori da 12
Polline .10 fuori da 12
Qualità dell'aria Non disponibile.
Flu Activity Non disponibile.
METAR KCIN 230655Z AUTO 20014G21KT 10SM OVC007 11/11 A2953 RMK AO2

More Conditions Fewer Conditions

10-Day Weather Forecast

Almanac

Astronomia

Nov. 23, 2014 Alba Tramonto
Ora attuale
Crepuscolo civile
Crepuscolo nautico
Crepuscolo astronomico
Luna
Estensione della luce visibile
Lunghezza del giorno
Tomorrow will be .
, % of the Moon is Illuminated

Gli estremi di oggi

State Highs State Lows

Community

WunderPhotos

Upload Photos

1,773,023 foto caricate!

WunderBlogs® & News

Nearby

Qualità dell'aria

  Qualità dell'aria Indice AQ Inquinante
Not available.

Profondità neve

Stazione Profondità Altitudine

Attività sismica

Città  Distanza Mag. Data & Ora
Minimo Magnitudo Mostrato è 2.5.

Temperature delle acque costiere

Località Temperatura

Stazioni meteo nelle vicinanze